Time;durP1;ratioP1;P1;durP2;ratioP2;P2;SDS_P1;SDS_P2;PMS_P1;PMS_P2;Temp;Humidity;BMP_temperature;BMP_pressure;BME280_temperature;BME280_humidity;BME280_pressure;Samples;Min_cycle;Max_cycle;Signal;HPM_P1;HPM_P2
2023/10/31 00:00:34;;;;;;;11.10;10.43;;;;;;;10.81;90.00;93017.63;5068179;28;20237;-81
2023/10/31 00:02:59;;;;;;;11.40;10.47;;;;;;;10.80;89.54;93000.38;5057150;28;20591;-81
2023/10/31 00:05:25;;;;;;;10.50;9.90;;;;;;;10.80;89.30;93005.59;5046239;28;20240;-79
2023/10/31 00:07:50;;;;;;;12.00;11.30;;;;;;;10.82;89.97;93006.13;5058949;28;20180;-80
2023/10/31 00:10:16;;;;;;;10.77;10.17;;;;;;;10.83;90.09;93010.28;5051140;28;20227;-82
2023/10/31 00:12:41;;;;;;;10.27;9.53;;;;;;;10.86;90.82;93001.91;5049503;28;20171;-81
2023/10/31 00:15:06;;;;;;;11.00;10.20;;;;;;;10.84;91.26;92996.19;5066834;28;20230;-81
2023/10/31 00:17:32;;;;;;;11.07;10.27;;;;;;;10.74;92.52;92996.25;5051686;28;20182;-81
2023/10/31 00:19:58;;;;;;;11.33;10.30;;;;;;;10.76;92.39;92994.16;5048467;28;20233;-81
2023/10/31 00:22:23;;;;;;;11.10;10.30;;;;;;;10.61;93.50;92983.00;5045712;28;20275;-81
2023/10/31 00:24:49;;;;;;;13.70;10.60;;;;;;;10.68;93.34;92991.31;5039040;28;20237;-78
2023/10/31 00:27:15;;;;;;;10.63;9.83;;;;;;;10.71;93.70;92991.56;5021387;28;20180;-80
2023/10/31 00:29:40;;;;;;;11.00;10.13;;;;;;;10.72;93.21;92987.91;5024227;28;20235;-82
2023/10/31 00:32:05;;;;;;;11.73;10.73;;;;;;;10.68;92.77;92981.66;5030805;28;20257;-82
2023/10/31 00:34:31;;;;;;;10.73;9.90;;;;;;;10.80;92.50;92989.19;5022534;28;20194;-81
2023/10/31 00:36:56;;;;;;;11.73;10.70;;;;;;;10.83;92.05;92989.41;5024201;28;20197;-81
2023/10/31 00:39:22;;;;;;;11.70;10.90;;;;;;;10.62;92.38;92968.91;5021315;28;20204;-81
2023/10/31 00:41:47;;;;;;;12.27;11.03;;;;;;;10.75;92.25;92984.78;5035913;28;20211;-81
2023/10/31 00:44:13;;;;;;;11.47;10.57;;;;;;;10.79;92.14;92982.38;5050066;28;20188;-78
2023/10/31 00:46:39;;;;;;;11.47;10.67;;;;;;;10.82;92.13;92982.63;5058977;28;20226;-81
2023/10/31 00:49:04;;;;;;;12.17;11.00;;;;;;;10.75;91.60;92963.09;5061623;28;20237;-81
2023/10/31 00:51:29;;;;;;;11.40;10.77;;;;;;;10.71;91.89;92983.72;5051015;28;20218;-80
2023/10/31 00:53:55;;;;;;;11.70;10.60;;;;;;;10.67;92.31;92972.28;5052662;28;20210;-81
2023/10/31 00:56:20;;;;;;;11.30;10.27;;;;;;;10.60;92.74;92981.47;5034089;28;20253;-82
2023/10/31 00:58:46;;;;;;;11.90;11.03;;;;;;;10.50;93.37;92968.44;5031378;28;20196;-81
2023/10/31 01:01:11;;;;;;;12.10;10.43;;;;;;;10.66;93.02;92973.31;5021994;28;20213;-81
2023/10/31 01:03:37;;;;;;;11.20;10.20;;;;;;;10.61;92.98;92965.53;5012193;28;20188;-81
2023/10/31 01:06:03;;;;;;;10.70;9.90;;;;;;;10.58;93.61;92960.06;5025877;28;20220;-82
2023/10/31 01:08:29;;;;;;;12.83;11.17;;;;;;;10.66;93.04;92947.19;5031203;28;20187;-81
2023/10/31 01:10:55;;;;;;;10.67;9.97;;;;;;;10.42;94.59;92941.09;5030631;28;20242;-81
2023/10/31 01:13:20;;;;;;;12.20;11.13;;;;;;;10.48;95.37;92947.84;5057651;28;20185;-82
2023/10/31 01:15:46;;;;;;;11.73;10.57;;;;;;;10.51;95.63;92949.91;5052205;28;20273;-81
2023/10/31 01:18:11;;;;;;;11.83;11.03;;;;;;;10.47;96.50;92946.28;5044070;28;20190;-81
2023/10/31 01:20:37;;;;;;;11.63;10.60;;;;;;;10.42;96.45;92951.53;5031495;28;20259;-81
2023/10/31 01:23:02;;;;;;;11.23;10.43;;;;;;;10.47;96.84;92948.88;5025878;28;20190;-81
2023/10/31 01:25:28;;;;;;;12.37;9.83;;;;;;;10.45;96.81;92945.75;5025752;28;20248;-81
2023/10/31 01:27:53;;;;;;;11.73;10.77;;;;;;;10.26;98.62;92941.41;5021791;28;20188;-81
2023/10/31 01:30:18;;;;;;;12.33;11.27;;;;;;;10.45;98.33;92945.75;5013591;28;20227;-80
2023/10/31 01:32:44;;;;;;;10.27;9.57;;;;;;;10.44;98.37;92944.22;5011065;28;20259;-80
2023/10/31 01:35:09;;;;;;;12.43;10.97;;;;;;;10.33;99.51;92941.91;5016844;28;20247;-80
2023/10/31 01:37:35;;;;;;;11.43;10.30;;;;;;;10.04;99.74;92897.38;5024371;28;20233;-82
2023/10/31 01:40:00;;;;;;;11.80;10.93;;;;;;;10.38;99.82;92932.22;5023604;28;20230;-82
2023/10/31 01:42:25;;;;;;;11.27;10.37;;;;;;;10.26;99.95;92928.34;5030465;28;20222;-89
2023/10/31 01:44:51;;;;;;;12.33;11.57;;;;;;;10.26;100.00;92946.63;5022408;28;20291;-80
2023/10/31 01:47:16;;;;;;;11.80;10.90;;;;;;;10.26;100.00;92947.41;5029032;28;20192;-79
2023/10/31 01:49:41;;;;;;;12.63;11.53;;;;;;;10.13;100.00;92944.59;5028584;28;20207;-80
2023/10/31 01:52:07;;;;;;;11.83;10.97;;;;;;;10.10;100.00;92943.28;5018613;28;20191;-76
2023/10/31 01:54:33;;;;;;;12.60;11.60;;;;;;;10.15;100.00;92940.66;5024948;28;20217;-77
2023/10/31 01:56:59;;;;;;;11.97;11.00;;;;;;;10.15;100.00;92934.69;5027779;28;20258;-78
2023/10/31 01:59:26;;;;;;;11.10;10.23;;;;;;;10.10;100.00;92943.28;5026944;28;20255;-78
2023/10/31 02:01:52;;;;;;;11.80;10.70;;;;;;;9.96;100.00;92908.38;5027589;28;20215;-77
2023/10/31 02:04:17;;;;;;;11.67;10.97;;;;;;;10.05;100.00;92930.25;5013343;28;20698;-78
2023/10/31 02:06:43;;;;;;;12.17;11.27;;;;;;;9.98;100.00;92903.66;5021188;28;20315;-79
2023/10/31 02:09:08;;;;;;;13.47;12.27;;;;;;;10.11;100.00;92918.78;5013455;28;20203;-78
2023/10/31 02:11:34;;;;;;;13.13;11.77;;;;;;;10.08;100.00;92919.31;5026292;28;20215;-78
2023/10/31 02:13:59;;;;;;;13.63;12.47;;;;;;;9.96;100.00;92903.16;5026494;28;20183;-78
2023/10/31 02:16:25;;;;;;;13.37;12.37;;;;;;;10.11;100.00;92918.00;5026741;28;20234;-78
2023/10/31 02:18:50;;;;;;;12.80;11.90;;;;;;;10.07;100.00;92916.94;5028396;28;20219;-77
2023/10/31 02:21:19;;;;;;;12.90;11.63;;;;;;;10.18;100.00;92913.28;5025454;28;20207;-78
2023/10/31 02:24:02;;;;;;;12.67;11.37;;;;;;;10.21;100.00;92907.53;5025578;28;20179;-75
2023/10/31 02:26:29;;;;;;;12.37;11.37;;;;;;;10.13;100.00;92895.81;5026222;28;20234;-78
2023/10/31 02:28:55;;;;;;;14.20;12.83;;;;;;;10.16;100.00;92905.72;5027049;28;20225;-78
2023/10/31 02:31:22;;;;;;;13.43;12.47;;;;;;;10.12;100.00;92914.34;5065885;28;20466;-78
2023/10/31 02:33:48;;;;;;;13.33;12.33;;;;;;;10.05;100.00;92893.75;5064375;28;20178;-78
2023/10/31 02:36:13;;;;;;;13.57;12.37;;;;;;;10.24;100.00;92909.59;5066515;28;20233;-78
2023/10/31 02:38:39;;;;;;;11.57;10.57;;;;;;;10.18;100.00;92908.81;5064713;28;20190;-78
2023/10/31 02:41:05;;;;;;;13.80;12.50;;;;;;;10.09;100.00;92905.22;5065997;28;20245;-78
2023/10/31 02:43:30;;;;;;;12.37;11.43;;;;;;;10.09;100.00;92910.44;5060834;28;20227;-76
2023/10/31 02:45:56;;;;;;;13.50;12.13;;;;;;;9.90;100.00;92869.56;5051913;28;20206;-77
2023/10/31 02:48:21;;;;;;;14.30;13.20;;;;;;;10.05;100.00;92892.97;5047761;28;20205;-78
2023/10/31 02:50:46;;;;;;;12.93;11.87;;;;;;;10.12;100.00;92898.69;5043435;28;20223;-77
2023/10/31 02:53:12;;;;;;;13.23;12.17;;;;;;;10.20;100.00;92901.53;5049456;28;20197;-77
2023/10/31 02:55:37;;;;;;;12.90;11.73;;;;;;;10.29;100.00;92910.34;5032666;28;20250;-77
2023/10/31 02:58:03;;;;;;;13.87;12.63;;;;;;;10.19;100.00;92907.81;5039412;28;20179;-78
2023/10/31 03:00:28;;;;;;;13.83;12.73;;;;;;;10.19;100.00;92894.75;5052536;28;20214;-78
2023/10/31 03:02:53;;;;;;;13.67;12.27;;;;;;;10.32;100.00;92903.81;5049713;28;20186;-78
2023/10/31 03:05:19;;;;;;;13.33;12.10;;;;;;;10.19;100.00;92897.38;5061450;28;20222;-77
2023/10/31 03:07:44;;;;;;;11.87;10.83;;;;;;;10.27;100.00;92909.84;5049615;28;20193;-77
2023/10/31 03:10:10;;;;;;;13.63;12.47;;;;;;;10.25;100.00;92903.31;5044742;28;20740;-78
2023/10/31 03:12:36;;;;;;;13.60;12.27;;;;;;;10.36;100.00;92910.84;5035686;28;20206;-78
2023/10/31 03:15:03;;;;;;;13.70;12.30;;;;;;;10.36;100.00;92907.44;5043611;28;20246;-78
2023/10/31 03:17:29;;;;;;;12.87;11.90;;;;;;;10.17;100.00;92890.84;5036663;28;20213;-77
2023/10/31 03:19:55;;;;;;;13.50;12.03;;;;;;;10.19;100.00;92896.56;5048017;28;20222;-78
2023/10/31 03:22:20;;;;;;;12.37;11.27;;;;;;;10.24;100.00;92905.16;5038727;28;20183;-78
2023/10/31 03:24:45;;;;;;;12.87;11.73;;;;;;;10.21;100.00;92897.84;5041268;28;20203;-78
2023/10/31 03:27:11;;;;;;;13.10;11.60;;;;;;;10.30;100.00;92900.69;5042354;28;20179;-78
2023/10/31 03:29:36;;;;;;;13.67;12.07;;;;;;;10.06;100.00;92900.50;5034517;28;20254;-77
2023/10/31 03:32:02;;;;;;;13.67;12.43;;;;;;;10.07;100.00;92896.88;5047374;28;20184;-78
2023/10/31 03:34:27;;;;;;;13.17;11.97;;;;;;;10.02;100.00;92883.06;5035292;28;20185;-77
2023/10/31 03:36:53;;;;;;;12.27;11.10;;;;;;;9.99;100.00;92889.59;5058703;28;20241;-78
2023/10/31 03:39:18;;;;;;;13.53;12.33;;;;;;;9.97;100.00;92881.25;5063387;28;20197;-78
2023/10/31 03:41:44;;;;;;;13.97;11.73;;;;;;;9.94;100.00;92884.41;5051616;28;20226;-78
2023/10/31 03:44:09;;;;;;;38.27;14.80;;;;;;;9.87;100.00;92875.31;5051952;28;20194;-78
2023/10/31 03:46:35;;;;;;;13.77;12.33;;;;;;;9.82;100.00;92858.63;5079434;28;20293;-76
2023/10/31 03:49:00;;;;;;;12.30;11.50;;;;;;;9.77;100.00;92857.88;5069342;28;20198;-78
2023/10/31 03:51:26;;;;;;;13.83;12.57;;;;;;;9.86;100.00;92877.13;5053742;28;20233;-77
2023/10/31 03:53:51;;;;;;;14.43;12.33;;;;;;;9.92;100.00;92873.44;5044218;28;20218;-78
2023/10/31 03:56:16;;;;;;;13.63;12.27;;;;;;;9.87;100.00;92867.50;5073070;28;20277;-78
2023/10/31 03:58:43;;;;;;;13.37;12.17;;;;;;;9.97;100.00;92865.59;5065900;28;20189;-77
2023/10/31 04:01:08;;;;;;;14.37;12.83;;;;;;;10.07;100.00;92876.00;5076810;28;20214;-78
2023/10/31 04:03:34;;;;;;;15.83;14.37;;;;;;;10.04;100.00;92866.09;5057257;28;20178;-77
2023/10/31 04:05:59;;;;;;;14.40;12.90;;;;;;;9.85;100.00;92859.94;5045866;28;20227;-78
2023/10/31 04:08:25;;;;;;;14.33;13.03;;;;;;;9.82;100.00;92863.06;5033022;28;20187;-77
2023/10/31 04:10:50;;;;;;;13.67;12.43;;;;;;;9.92;100.00;92872.66;5047007;28;20234;-78
2023/10/31 04:13:15;;;;;;;13.83;12.63;;;;;;;9.69;100.00;92879.28;5043181;28;20184;-78
2023/10/31 04:15:41;;;;;;;14.33;12.93;;;;;;;9.63;100.00;92890.78;5049356;28;20222;-77
2023/10/31 04:18:06;;;;;;;13.97;12.53;;;;;;;9.71;100.00;92887.63;5054011;28;20174;-77
2023/10/31 04:20:31;;;;;;;13.30;12.20;;;;;;;9.62;100.00;92861.31;5057772;28;20245;-78
2023/10/31 04:22:57;;;;;;;14.27;13.17;;;;;;;9.73;100.00;92875.09;5035029;28;20187;-78
2023/10/31 04:25:22;;;;;;;13.40;12.17;;;;;;;9.59;100.00;92863.66;5048255;28;20232;-78
2023/10/31 04:27:47;;;;;;;14.07;12.77;;;;;;;9.69;100.00;92855.81;5049699;28;20190;-79
2023/10/31 04:30:14;;;;;;;13.53;12.53;;;;;;;9.62;100.00;92855.31;5049362;28;20229;-79
2023/10/31 04:32:40;;;;;;;13.57;12.27;;;;;;;9.47;100.00;92831.91;5042440;28;20198;-79
2023/10/31 04:35:05;;;;;;;14.10;12.73;;;;;;;9.62;100.00;92844.88;5037476;28;20938;-77
2023/10/31 04:37:31;;;;;;;13.80;12.63;;;;;;;9.64;100.00;92843.59;5051818;28;20182;-79
2023/10/31 04:39:56;;;;;;;13.87;12.60;;;;;;;9.62;100.00;92844.88;5046883;28;20223;-79
2023/10/31 04:42:22;;;;;;;13.93;11.80;;;;;;;9.58;100.00;92851.69;5046839;28;20197;-79
2023/10/31 04:44:48;;;;;;;14.30;13.20;;;;;;;9.61;100.00;92856.38;5038087;28;20187;-79
2023/10/31 04:47:13;;;;;;;13.63;12.50;;;;;;;9.53;100.00;92855.09;5071464;28;20189;-78
2023/10/31 04:49:39;;;;;;;13.67;12.43;;;;;;;9.49;100.00;92853.28;5063977;28;20214;-78
2023/10/31 04:52:04;;;;;;;14.90;13.50;;;;;;;9.66;100.00;92867.53;5047472;28;20189;-78
2023/10/31 04:54:30;;;;;;;13.70;12.60;;;;;;;9.71;100.00;92871.97;5052490;28;20190;-78
2023/10/31 04:56:55;;;;;;;13.53;12.33;;;;;;;9.56;100.00;92856.38;5035172;28;20187;-78
2023/10/31 04:59:21;;;;;;;13.53;12.00;;;;;;;9.81;100.00;92871.94;5041226;28;20198;-79
2023/10/31 05:01:54;;;;;;;13.03;11.93;;;;;;;9.71;100.00;92861.56;5049462;28;20229;-78
2023/10/31 05:04:19;;;;;;;15.17;13.13;;;;;;;9.51;100.00;92854.56;5045334;28;20210;-79
2023/10/31 05:06:45;;;;;;;16.30;13.37;;;;;;;9.73;100.00;92881.09;5069477;28;20217;-78
2023/10/31 05:09:10;;;;;;;14.30;12.83;;;;;;;9.70;100.00;92881.63;5065562;28;20213;-79
2023/10/31 05:11:36;;;;;;;14.00;12.23;;;;;;;9.68;100.00;92882.94;5066502;28;20296;-79
2023/10/31 05:14:02;;;;;;;17.37;13.17;;;;;;;9.53;100.00;92868.13;5068657;28;20182;-81
2023/10/31 05:16:27;;;;;;;13.93;12.57;;;;;;;9.65;100.00;92870.41;5048703;28;20223;-77
2023/10/31 05:18:53;;;;;;;13.30;12.33;;;;;;;9.67;100.00;92870.94;5038982;28;20221;-76
2023/10/31 05:21:23;;;;;;;12.37;11.40;;;;;;;9.71;100.00;92864.91;5048120;28;20231;-77
2023/10/31 05:23:49;;;;;;;12.50;11.00;;;;;;;9.72;100.00;92878.75;5062292;28;20249;-75
2023/10/31 05:26:14;;;;;;;13.17;11.90;;;;;;;9.72;100.00;92863.09;5037263;28;20226;-76
2023/10/31 05:28:39;;;;;;;13.50;12.50;;;;;;;9.55;100.00;92883.50;5042256;28;20256;-75
2023/10/31 05:31:05;;;;;;;13.20;12.00;;;;;;;9.60;100.00;92880.88;5051694;28;20217;-75
2023/10/31 05:33:30;;;;;;;14.80;13.33;;;;;;;9.55;100.00;92888.72;5057397;28;20217;-76
2023/10/31 05:35:56;;;;;;;13.37;12.17;;;;;;;9.68;100.00;92896.75;5050252;28;20225;-76
2023/10/31 05:38:21;;;;;;;14.17;13.07;;;;;;;9.78;100.00;92894.09;5058626;28;20194;-76
2023/10/31 05:40:48;;;;;;;12.67;11.47;;;;;;;9.82;100.00;92882.09;5045085;28;20290;-75
2023/10/31 05:43:13;;;;;;;14.73;13.23;;;;;;;9.95;100.00;92888.56;5047808;28;20194;-76
2023/10/31 05:45:38;;;;;;;14.87;13.30;;;;;;;9.93;100.00;92888.03;5047272;28;20236;-75
2023/10/31 05:48:04;;;;;;;14.30;12.80;;;;;;;9.92;100.00;92886.50;5047322;28;20186;-75
2023/10/31 05:50:30;;;;;;;12.93;12.03;;;;;;;9.98;100.00;92880.19;5049684;28;20233;-76
2023/10/31 05:52:56;;;;;;;15.40;13.03;;;;;;;10.05;100.00;92878.09;5046573;28;20189;-75
2023/10/31 05:55:21;;;;;;;13.90;12.90;;;;;;;10.03;100.00;92880.19;5046943;28;20303;-75
2023/10/31 05:57:46;;;;;;;15.30;11.10;;;;;;;10.20;100.00;92885.88;5040909;28;20185;-75
2023/10/31 06:00:12;;;;;;;19.30;13.20;;;;;;;10.27;100.00;92894.19;5047811;28;20230;-75
2023/10/31 06:02:37;;;;;;;16.50;12.60;;;;;;;10.35;100.00;92898.81;5048726;28;20193;-76
2023/10/31 06:05:03;;;;;;;17.13;12.43;;;;;;;10.17;100.00;92869.97;5052973;28;20229;-76
2023/10/31 06:07:30;;;;;;;13.60;12.23;;;;;;;10.47;100.00;92922.78;5068049;28;20185;-76
2023/10/31 06:09:55;;;;;;;12.93;11.93;;;;;;;10.58;100.00;92926.13;5063700;28;20338;-75
2023/10/31 06:12:21;;;;;;;19.43;14.70;;;;;;;10.71;100.00;92912.44;5069250;28;20233;-75
2023/10/31 06:14:46;;;;;;;16.83;15.07;;;;;;;10.76;100.00;92923.66;5058268;28;20188;-76
2023/10/31 06:17:11;;;;;;;15.77;13.53;;;;;;;10.83;100.00;92920.72;5064347;28;20181;-77
2023/10/31 06:19:37;;;;;;;15.93;14.37;;;;;;;10.66;100.00;92915.88;5061591;28;20194;-76
2023/10/31 06:22:03;;;;;;;17.67;15.87;;;;;;;10.74;100.00;92923.13;5067302;28;20170;-76
2023/10/31 06:24:28;;;;;;;23.70;16.73;;;;;;;10.81;100.00;92913.19;5058274;28;20209;-73
2023/10/31 06:26:54;;;;;;;19.20;16.40;;;;;;;10.33;100.00;92913.19;5055611;28;20198;-76
2023/10/31 06:29:19;;;;;;;18.27;16.27;;;;;;;10.45;100.00;92914.44;5060097;28;20277;-78
2023/10/31 06:31:44;;;;;;;18.37;16.50;;;;;;;10.45;100.00;92924.09;5065096;28;20233;-75
2023/10/31 06:34:10;;;;;;;19.50;17.33;;;;;;;10.20;100.00;92932.03;5062587;28;20192;-75
2023/10/31 06:36:35;;;;;;;22.57;17.73;;;;;;;10.45;100.00;92917.03;5057893;28;20289;-80
2023/10/31 06:39:00;;;;;;;20.70;17.60;;;;;;;10.50;100.00;92935.31;5064999;28;20194;-76
2023/10/31 06:41:26;;;;;;;24.77;18.17;;;;;;;10.39;100.00;92931.19;5048793;28;20226;-77
2023/10/31 06:43:51;;;;;;;26.40;18.67;;;;;;;10.50;100.00;92937.91;5054275;28;20182;-76
2023/10/31 06:46:17;;;;;;;20.80;17.57;;;;;;;10.42;100.00;92920.19;5063358;28;20214;-77
2023/10/31 06:48:42;;;;;;;20.37;17.93;;;;;;;10.51;100.00;92926.41;5052596;28;20223;-76
2023/10/31 06:51:07;;;;;;;20.87;17.97;;;;;;;10.59;100.00;92923.22;5064048;28;20228;-76
2023/10/31 06:53:33;;;;;;;20.50;18.03;;;;;;;10.68;100.00;92924.22;5069039;28;20185;-76
2023/10/31 06:55:58;;;;;;;24.50;16.83;;;;;;;10.98;100.00;92912.78;5065839;28;21272;-76
2023/10/31 06:58:24;;;;;;;20.50;18.43;;;;;;;10.99;100.00;92917.72;5061463;28;20205;-77
2023/10/31 07:00:49;;;;;;;29.23;19.63;;;;;;;11.01;100.00;92907.78;5066342;28;20259;-76
2023/10/31 07:03:15;;;;;;;20.67;17.67;;;;;;;11.17;100.00;92911.06;5070226;28;20197;-76
2023/10/31 07:05:41;;;;;;;30.23;19.20;;;;;;;11.19;100.00;92924.66;5065867;28;20234;-77
2023/10/31 07:08:07;;;;;;;26.83;18.23;;;;;;;11.16;100.00;92928.56;5066109;28;20262;-81
2023/10/31 07:10:33;;;;;;;24.20;20.23;;;;;;;11.21;100.00;92925.91;5056743;28;20226;-79
2023/10/31 07:12:59;;;;;;;25.67;19.03;;;;;;;11.20;100.00;92908.69;5041033;28;20767;-79
2023/10/31 07:15:27;;;;;;;21.57;19.27;;;;;;;11.32;100.00;92903.88;5047791;28;20233;-80
2023/10/31 07:17:53;;;;;;;24.40;19.53;;;;;;;11.58;99.78;92914.84;5041723;28;20197;-80
2023/10/31 07:20:18;;;;;;;34.60;19.20;;;;;;;11.88;98.12;92911.97;5046129;28;21005;-81
2023/10/31 07:22:44;;;;;;;22.63;18.07;;;;;;;11.86;97.92;92913.31;5058970;28;20939;-86
2023/10/31 07:25:09;;;;;;;25.63;19.50;;;;;;;12.05;97.38;92914.13;5060674;28;20304;-83
2023/10/31 07:27:35;;;;;;;26.83;18.83;;;;;;;12.06;97.23;92919.06;5045153;28;20181;-80
2023/10/31 07:30:03;;;;;;;29.57;19.13;;;;;;;12.05;96.47;92914.91;5044819;28;20233;-81
2023/10/31 07:32:29;;;;;;;27.80;18.23;;;;;;;12.19;95.59;92907.16;5075998;28;20189;-82
2023/10/31 07:34:54;;;;;;;20.80;18.00;;;;;;;12.20;95.74;92917.34;5059618;28;20225;-82
2023/10/31 07:37:20;;;;;;;26.97;18.77;;;;;;;12.48;94.55;92921.69;5038007;28;20193;-75
2023/10/31 07:39:45;;;;;;;24.83;20.33;;;;;;;12.62;92.51;92919.19;5045502;28;20214;-80
2023/10/31 07:42:10;;;;;;;25.70;18.13;;;;;;;12.36;94.77;92918.72;5045501;28;20186;-84
2023/10/31 07:44:36;;;;;;;30.37;19.47;;;;;;;12.42;95.14;92911.59;5054452;28;20619;-83
2023/10/31 07:47:01;;;;;;;23.37;18.63;;;;;;;12.49;94.83;92891.06;5050141;28;20197;-81
2023/10/31 07:49:27;;;;;;;24.27;19.33;;;;;;;12.92;92.88;92897.75;5051533;28;20220;-88
2023/10/31 07:51:52;;;;;;;19.87;16.23;;;;;;;13.18;90.95;92895.56;5051395;28;20265;-85
2023/10/31 07:54:18;;;;;;;27.63;18.73;;;;;;;13.15;91.51;92894.31;5051808;28;20832;-88
2023/10/31 07:56:44;;;;;;;23.33;20.73;;;;;;;13.37;90.42;92876.09;5038793;28;20222;-82
2023/10/31 07:59:09;;;;;;;24.97;17.70;;;;;;;13.73;89.38;92892.75;5044015;28;20218;-83
2023/10/31 08:01:35;;;;;;;25.63;19.17;;;;;;;13.52;90.57;92880.31;5045710;28;20235;-89
2023/10/31 08:04:00;;;;;;;21.33;19.20;;;;;;;13.84;88.32;92888.09;5043559;28;20185;-90
2023/10/31 08:06:26;;;;;;;29.10;18.10;;;;;;;13.77;88.65;92879.84;5049695;28;20229;-88
2023/10/31 08:08:51;;;;;;;21.43;16.93;;;;;;;13.88;87.02;92870.72;5056320;28;20191;-88
2023/10/31 08:11:17;;;;;;;30.23;18.47;;;;;;;13.63;88.85;92868.56;5043822;28;20238;-82
2023/10/31 08:13:42;;;;;;;24.33;17.67;;;;;;;13.59;90.03;92876.22;5033138;28;20202;-80
2023/10/31 08:16:08;;;;;;;27.23;18.90;;;;;;;13.85;89.04;92882.56;5046847;28;20226;-85
2023/10/31 08:18:34;;;;;;;26.30;18.17;;;;;;;14.17;87.93;92894.81;5049184;28;20189;-84
2023/10/31 08:20:59;;;;;;;21.77;17.83;;;;;;;14.61;85.48;92883.69;5043592;28;20226;-84
2023/10/31 08:23:25;;;;;;;22.07;16.90;;;;;;;14.67;84.50;92882.50;5043110;28;20182;-81
2023/10/31 08:25:51;;;;;;;20.47;17.80;;;;;;;14.52;84.91;92876.50;5047594;28;20222;-78
2023/10/31 08:28:17;;;;;;;26.37;17.40;;;;;;;14.58;85.04;92874.56;5042087;28;20194;-77
2023/10/31 08:30:42;;;;;;;27.13;16.17;;;;;;;14.56;84.61;92870.66;5047272;28;20222;-77
2023/10/31 08:33:08;;;;;;;18.03;16.20;;;;;;;14.80;83.08;92866.69;5051951;28;20197;-80
2023/10/31 08:35:33;;;;;;;18.97;15.20;;;;;;;14.62;83.41;92870.25;5045847;28;20221;-77
2023/10/31 08:37:59;;;;;;;18.30;16.33;;;;;;;14.84;82.32;92845.84;5058089;28;20219;-77
2023/10/31 08:40:25;;;;;;;20.53;15.33;;;;;;;15.01;82.11;92851.22;5054078;28;20244;-76
2023/10/31 08:42:50;;;;;;;18.90;15.77;;;;;;;14.87;81.26;92847.88;5049025;28;20194;-77
2023/10/31 08:45:15;;;;;;;16.13;14.50;;;;;;;15.11;80.48;92837.84;5044712;28;20223;-76
2023/10/31 08:47:41;;;;;;;16.90;14.60;;;;;;;15.42;78.96;92849.22;5041586;28;20193;-76
2023/10/31 08:50:11;;;;;;;15.97;13.87;;;;;;;15.34;78.53;92847.28;5040767;28;20226;-75
2023/10/31 08:52:37;;;;;;;21.60;14.10;;;;;;;15.22;77.98;92841.78;5046192;28;20272;-75
2023/10/31 08:55:03;;;;;;;16.10;13.80;;;;;;;15.37;76.04;92823.00;5049248;28;20217;-75
2023/10/31 08:57:28;;;;;;;15.67;14.17;;;;;;;15.67;74.67;92830.88;5042443;28;20194;-75
2023/10/31 08:59:54;;;;;;;14.13;12.63;;;;;;;15.59;74.68;92825.59;5068506;28;20216;-78
2023/10/31 09:02:19;;;;;;;13.83;11.40;;;;;;;15.49;71.22;92816.13;5066993;28;20193;-79
2023/10/31 09:04:44;;;;;;;13.87;12.27;;;;;;;15.52;70.05;92827.88;5065278;28;20205;-79
2023/10/31 09:07:10;;;;;;;11.60;10.47;;;;;;;15.56;67.46;92826.22;5042780;28;20238;-79
2023/10/31 09:09:35;;;;;;;13.07;11.63;;;;;;;15.80;69.79;92805.53;5039654;28;20262;-79
2023/10/31 09:12:00;;;;;;;12.73;11.70;;;;;;;16.05;69.80;92807.47;5064755;28;20193;-80
2023/10/31 09:14:26;;;;;;;9.73;9.03;;;;;;;15.81;64.77;92804.47;5049498;28;20179;-89
2023/10/31 09:16:51;;;;;;;10.67;9.67;;;;;;;15.76;64.37;92813.28;5048713;28;20225;-89
2023/10/31 09:19:17;;;;;;;10.40;9.70;;;;;;;15.91;66.82;92801.56;5037619;28;20178;-82
2023/10/31 09:21:43;;;;;;;13.30;12.10;;;;;;;15.99;68.37;92798.16;5065987;28;20225;-83
2023/10/31 09:24:09;;;;;;;12.53;11.47;;;;;;;16.07;68.09;92794.78;5065838;28;20257;-80
2023/10/31 09:26:34;;;;;;;15.27;11.20;;;;;;;16.35;65.76;92798.72;5047929;28;20224;-81
2023/10/31 09:28:59;;;;;;;13.60;10.77;;;;;;;16.67;65.42;92795.63;5041852;28;20222;-87
2023/10/31 09:31:25;;;;;;;14.63;10.13;;;;;;;16.82;63.14;92792.56;5045741;28;20222;-78
2023/10/31 09:33:50;;;;;;;11.63;10.30;;;;;;;16.81;63.20;92777.03;5055562;28;20205;-80
2023/10/31 09:36:16;;;;;;;11.90;10.50;;;;;;;16.59;64.02;92780.59;5040212;28;20214;-80
2023/10/31 09:41:25;;;;;;;11.23;10.33;;;;;;;16.73;63.45;92759.34;5038671;28;20289;-79
2023/10/31 09:43:51;;;;;;;13.10;9.93;;;;;;;16.69;62.37;92756.56;5041519;28;20182;-79
2023/10/31 09:46:17;;;;;;;11.53;10.37;;;;;;;16.73;61.37;92756.72;5043545;28;20234;-79
2023/10/31 09:48:43;;;;;;;10.83;9.43;;;;;;;16.72;60.83;92761.22;5048451;28;20186;-79
2023/10/31 09:51:10;;;;;;;10.60;9.70;;;;;;;17.01;59.69;92756.03;5064404;28;20209;-79
2023/10/31 09:53:40;;;;;;;10.67;9.77;;;;;;;16.98;59.86;92750.63;5074948;28;20215;-77
2023/10/31 09:56:06;;;;;;;10.37;9.47;;;;;;;16.73;62.18;92733.75;5053349;28;20290;-76
2023/10/31 09:58:32;;;;;;;9.70;8.80;;;;;;;16.84;62.27;92728.94;5046215;28;20197;-76
2023/10/31 10:00:57;;;;;;;10.43;9.53;;;;;;;17.11;59.98;92734.63;5048910;28;20264;-75
2023/10/31 10:03:23;;;;;;;10.33;9.33;;;;;;;17.31;56.28;92733.94;5048833;28;20246;-76
2023/10/31 10:05:49;;;;;;;11.07;9.87;;;;;;;17.60;56.15;92736.63;5055862;28;20225;-77
2023/10/31 10:08:15;;;;;;;10.80;9.83;;;;;;;17.64;55.62;92718.28;5059619;28;20279;-74
2023/10/31 10:10:40;;;;;;;10.30;9.40;;;;;;;17.88;55.27;92726.41;5055711;28;20226;-74
2023/10/31 10:13:05;;;;;;;11.00;10.13;;;;;;;17.42;55.67;92716.66;5035833;28;20198;-74
2023/10/31 10:15:43;;;;;;;11.17;10.37;;;;;;;17.35;56.51;92712.97;5042959;28;20238;-74
2023/10/31 10:18:08;;;;;;;11.37;10.23;;;;;;;17.77;56.01;92703.31;5048201;28;20182;-76
2023/10/31 10:20:34;;;;;;;14.30;9.67;;;;;;;17.89;55.68;92711.31;5047685;28;20226;-74
2023/10/31 10:23:04;;;;;;;9.83;9.13;;;;;;;17.80;55.67;92707.94;5041093;28;20176;-74
2023/10/31 10:25:30;;;;;;;13.03;9.20;;;;;;;17.85;56.13;92700.63;5045482;28;20254;-74
2023/10/31 10:27:56;;;;;;;13.10;9.40;;;;;;;18.14;55.12;92694.50;5040238;28;20182;-72
2023/10/31 10:30:21;;;;;;;10.23;9.33;;;;;;;18.31;53.79;92697.81;5042989;28;20290;-73
2023/10/31 10:32:50;;;;;;;11.03;10.13;;;;;;;18.52;52.99;92697.81;5043061;28;20221;-73
2023/10/31 10:35:16;;;;;;;10.90;9.83;;;;;;;18.57;52.84;92697.59;5041299;28;20230;-74
2023/10/31 10:37:43;;;;;;;8.93;8.33;;;;;;;18.56;53.91;92688.13;5073240;28;20241;-74
2023/10/31 10:40:10;;;;;;;10.33;9.40;;;;;;;18.62;49.97;92694.75;5055453;28;20246;-73
2023/10/31 10:42:43;;;;;;;10.03;9.23;;;;;;;18.56;51.34;92677.56;5048196;28;20216;-74
2023/10/31 10:45:11;;;;;;;11.17;10.10;;;;;;;18.66;52.65;92671.88;5047770;28;20243;-74
2023/10/31 10:47:39;;;;;;;10.73;9.93;;;;;;;18.82;52.01;92670.13;5042676;28;20185;-74
2023/10/31 10:50:06;;;;;;;11.13;9.83;;;;;;;18.92;51.23;92627.41;5047194;28;20250;-75
2023/10/31 10:53:08;;;;;;;10.40;9.50;;;;;;;19.16;49.81;92654.66;5037527;28;20195;-76
2023/10/31 10:55:39;;;;;;;10.97;8.93;;;;;;;19.23;50.24;92656.78;5043212;28;20227;-78
2023/10/31 10:58:12;;;;;;;9.27;8.60;;;;;;;19.06;49.09;92639.22;5034966;28;20185;-75
2023/10/31 11:00:38;;;;;;;10.30;9.50;;;;;;;19.12;50.35;92648.50;5046575;28;20604;-74
2023/10/31 11:03:06;;;;;;;10.13;9.23;;;;;;;19.21;48.63;92637.78;5067258;28;20246;-76
2023/10/31 11:05:32;;;;;;;9.83;8.93;;;;;;;19.17;48.13;92628.97;5062571;28;20217;-73
2023/10/31 11:07:59;;;;;;;12.77;9.57;;;;;;;19.34;47.52;92626.16;5065432;28;20192;-73
2023/10/31 11:10:25;;;;;;;9.60;8.60;;;;;;;18.92;47.77;92630.06;5050191;28;20232;-73
2023/10/31 11:12:51;;;;;;;9.63;8.80;;;;;;;18.94;47.57;92622.56;5051297;28;20193;-77